Time;durP1;ratioP1;P1;durP2;ratioP2;P2;SDS_P1;SDS_P2;PMS_P1;PMS_P2;Temp;Humidity;BMP_temperature;BMP_pressure;BME280_temperature;BME280_humidity;BME280_pressure;Samples;Min_cycle;Max_cycle;Signal;HPM_P1;HPM_P2
2023/05/02 00:00:12;;;;;;;4.13;2.03;;;15.80;70.70;;;;;;5012362;28;20108;-79
2023/05/02 00:02:37;;;;;;;3.05;1.20;;;15.80;70.90;;;;;;5012667;28;20037;-79
2023/05/02 00:05:04;;;;;;;5.00;1.60;;;15.80;70.90;;;;;;5011746;28;20348;-78
2023/05/02 00:07:30;;;;;;;6.10;2.00;;;15.90;70.80;;;;;;5011696;28;20033;-80
2023/05/02 00:09:55;;;;;;;4.05;1.75;;;15.90;70.60;;;;;;5011425;28;20387;-77
2023/05/02 00:12:22;;;;;;;3.38;1.42;;;15.90;70.90;;;;;;5011869;28;20045;-77
2023/05/02 00:14:47;;;;;;;11.15;1.70;;;15.80;71.50;;;;;;5012103;28;20030;-77
2023/05/02 00:17:17;;;;;;;4.68;1.77;;;15.70;71.80;;;;;;5012077;28;20056;-79
2023/05/02 00:19:43;;;;;;;3.22;1.55;;;15.60;72.20;;;;;;5012424;28;20467;-77
2023/05/02 00:22:08;;;;;;;2.53;1.20;;;15.70;72.20;;;;;;5012081;28;20033;-78
2023/05/02 00:24:34;;;;;;;4.53;2.03;;;15.80;72.30;;;;;;5011602;28;20341;-78
2023/05/02 00:27:00;;;;;;;3.03;1.48;;;15.70;72.60;;;;;;5011937;28;20030;-79
2023/05/02 00:29:25;;;;;;;5.43;1.67;;;15.70;72.80;;;;;;5011354;28;20084;-78
2023/05/02 00:31:51;;;;;;;3.20;1.75;;;15.60;73.20;;;;;;5012057;28;20098;-77
2023/05/02 00:34:16;;;;;;;3.25;1.33;;;15.50;73.80;;;;;;5011771;28;20168;-78
2023/05/02 00:36:42;;;;;;;3.35;1.40;;;15.50;74.10;;;;;;5011663;28;20025;-77
2023/05/02 00:39:08;;;;;;;7.22;2.42;;;15.50;74.20;;;;;;5010856;28;20028;-77
2023/05/02 00:41:34;;;;;;;3.38;1.35;;;15.50;74.50;;;;;;5011346;28;20371;-79
2023/05/02 00:44:00;;;;;;;5.32;2.05;;;15.50;74.40;;;;;;5010362;28;20105;-76
2023/05/02 00:46:26;;;;;;;4.22;1.80;;;15.60;74.50;;;;;;4994686;28;20033;-78
2023/05/02 00:48:52;;;;;;;4.93;1.80;;;15.60;74.70;;;;;;5011672;28;20037;-77
2023/05/02 00:51:18;;;;;;;3.63;1.40;;;15.60;75.00;;;;;;5010653;28;20117;-78
2023/05/02 00:53:44;;;;;;;5.78;1.50;;;15.50;75.10;;;;;;5011661;28;20037;-79
2023/05/02 00:56:10;;;;;;;5.35;1.73;;;15.50;75.30;;;;;;5011577;28;20033;-79
2023/05/02 00:58:37;;;;;;;2.38;1.70;;;15.40;75.50;;;;;;5012316;28;20034;-79
2023/05/02 01:01:33;;;;;;;5.40;2.10;;;15.50;75.60;;;;;;5011833;28;20029;-77
2023/05/02 01:03:58;;;;;;;6.22;2.22;;;15.50;76.20;;;;;;5010261;28;20323;-79
2023/05/02 01:06:52;;;;;;;5.30;2.60;;;15.50;76.40;;;;;;5010261;28;20558;-77
2023/05/02 01:09:36;;;;;;;8.93;3.00;;;15.40;76.90;;;;;;5011396;28;20411;-77
2023/05/02 01:12:31;;;;;;;4.88;2.38;;;15.30;77.50;;;;;;5011324;28;20135;-78
2023/05/02 01:15:00;;;;;;;9.45;3.10;;;15.30;77.60;;;;;;5011511;28;20108;-75
2023/05/02 01:17:31;;;;;;;7.75;2.75;;;15.20;78.20;;;;;;5011271;28;20472;-76
2023/05/02 01:20:01;;;;;;;6.15;3.58;;;15.10;78.70;;;;;;5011035;28;20021;-76
2023/05/02 01:22:31;;;;;;;6.65;3.10;;;15.30;78.10;;;;;;5012167;28;20026;-78
2023/05/02 01:25:09;;;;;;;6.68;3.13;;;15.30;78.60;;;;;;5011148;28;20034;-78
2023/05/02 01:28:12;;;;;;;7.05;2.85;;;15.30;78.90;;;;;;5011668;28;20372;-77
2023/05/02 01:30:42;;;;;;;10.55;3.58;;;15.30;79.30;;;;;;5010932;28;20100;-77
2023/05/02 01:33:10;;;;;;;7.05;4.55;;;15.30;79.70;;;;;;5011012;28;20092;-78
2023/05/02 01:35:36;;;;;;;8.52;4.72;;;14.90;80.90;;;;;;5017379;28;20033;-77
2023/05/02 01:38:04;;;;;;;9.00;5.18;;;15.00;81.70;;;;;;5030517;28;20467;-76
2023/05/02 01:40:32;;;;;;;12.60;6.60;;;15.00;81.90;;;;;;5031098;28;20022;-78
2023/05/02 01:42:59;;;;;;;14.35;5.85;;;14.80;83.20;;;;;;5030496;28;20025;-77
2023/05/02 01:45:27;;;;;;;12.65;5.55;;;14.80;83.60;;;;;;5030461;28;20029;-77
2023/05/02 01:47:54;;;;;;;13.65;7.13;;;14.90;83.70;;;;;;5022471;28;20091;-78
2023/05/02 01:50:23;;;;;;;11.93;6.85;;;14.80;84.60;;;;;;5010490;28;20028;-77
2023/05/02 01:52:52;;;;;;;12.25;6.35;;;14.80;85.50;;;;;;5011419;28;20310;-78
2023/05/02 01:55:19;;;;;;;13.00;6.88;;;14.80;85.80;;;;;;5011051;28;20555;-81
2023/05/02 01:57:46;;;;;;;16.60;8.50;;;14.80;85.50;;;;;;4993832;28;20064;-79
2023/05/02 02:00:16;;;;;;;15.07;8.07;;;14.70;87.70;;;;;;5010930;28;20030;-77
2023/05/02 02:02:44;;;;;;;20.90;9.82;;;14.60;88.40;;;;;;4993440;28;20030;-78
2023/05/02 02:05:11;;;;;;;19.73;9.40;;;14.60;89.40;;;;;;5010910;28;20018;-78
2023/05/02 02:07:37;;;;;;;17.88;10.02;;;14.60;90.00;;;;;;5011003;28;20057;-78
2023/05/02 02:10:03;;;;;;;18.10;10.60;;;14.70;89.50;;;;;;5010517;28;20112;-79
2023/05/02 02:12:55;;;;;;;21.80;10.98;;;14.60;90.10;;;;;;5010789;28;20442;-80
2023/05/02 02:15:27;;;;;;;16.90;9.25;;;14.60;90.40;;;;;;4999481;28;20057;-79
2023/05/02 02:18:09;;;;;;;18.35;10.07;;;14.70;90.10;;;;;;5010487;28;20079;-77
2023/05/02 02:20:35;;;;;;;16.60;9.23;;;14.80;89.80;;;;;;5016479;28;20357;-79
2023/05/02 02:23:05;;;;;;;19.35;10.82;;;14.80;90.30;;;;;;5029117;28;20095;-78
2023/05/02 02:25:32;;;;;;;20.42;10.20;;;14.50;91.00;;;;;;5010837;28;20022;-78
2023/05/02 02:27:59;;;;;;;18.30;10.10;;;14.60;91.00;;;;;;5010449;28;20030;-79
2023/05/02 02:30:24;;;;;;;20.50;9.43;;;14.60;90.70;;;;;;5013704;28;20419;-78
2023/05/02 02:32:51;;;;;;;19.83;10.70;;;14.80;90.80;;;;;;5014073;28;20095;-80
2023/05/02 02:35:17;;;;;;;21.80;11.27;;;14.60;91.10;;;;;;5014253;28;20038;-77
2023/05/02 02:38:03;;;;;;;22.13;11.50;;;14.70;91.20;;;;;;5014332;28;20022;-79
2023/05/02 02:40:43;;;;;;;23.75;11.70;;;14.40;92.20;;;;;;5016325;28;20099;-78
2023/05/02 02:43:20;;;;;;;23.63;12.43;;;14.50;92.20;;;;;;5033760;28;20053;-79
2023/05/02 02:45:51;;;;;;;25.73;12.25;;;14.50;92.40;;;;;;5033474;28;20025;-80
2023/05/02 02:48:40;;;;;;;24.83;12.82;;;14.70;91.80;;;;;;5033301;28;20026;-78
2023/05/02 02:51:18;;;;;;;21.55;12.40;;;14.70;92.50;;;;;;5033349;28;20041;-79
2023/05/02 02:54:00;;;;;;;25.33;13.80;;;14.70;92.60;;;;;;5033337;28;20336;-80
2023/05/02 02:56:32;;;;;;;24.50;13.15;;;14.60;93.00;;;;;;5033307;28;20354;-79
2023/05/02 02:59:08;;;;;;;22.45;14.10;;;14.40;93.40;;;;;;5033183;28;20029;-79
2023/05/02 03:01:38;;;;;;;24.95;14.82;;;14.30;93.90;;;;;;5034103;28;20097;-79
2023/05/02 03:04:06;;;;;;;26.73;13.98;;;14.30;94.10;;;;;;5033180;28;20021;-79
2023/05/02 03:06:32;;;;;;;28.42;15.45;;;14.50;93.80;;;;;;5033290;28;20372;-81
2023/05/02 03:08:57;;;;;;;25.77;14.30;;;14.60;93.70;;;;;;5032963;28;20116;-80
2023/05/02 03:11:23;;;;;;;25.92;14.70;;;14.20;94.60;;;;;;5032960;28;20141;-79
2023/05/02 03:13:49;;;;;;;25.15;13.40;;;14.00;95.20;;;;;;5015894;28;20454;-78
2023/05/02 03:16:32;;;;;;;24.45;12.02;;;14.10;95.20;;;;;;5032951;28;20029;-78
2023/05/02 03:18:58;;;;;;;24.27;12.68;;;14.00;95.40;;;;;;5032924;28;20372;-78
2023/05/02 03:21:24;;;;;;;24.30;12.77;;;14.00;95.60;;;;;;5032918;28;20034;-79
2023/05/02 03:23:50;;;;;;;24.92;12.32;;;14.10;95.40;;;;;;5032824;28;20116;-79
2023/05/02 03:26:16;;;;;;;20.33;12.05;;;14.20;95.50;;;;;;5033250;28;20468;-79
2023/05/02 03:28:45;;;;;;;24.30;12.30;;;14.10;95.80;;;;;;5032995;28;20021;-78
2023/05/02 03:31:12;;;;;;;22.42;12.02;;;14.10;95.70;;;;;;5032634;28;20166;-78
2023/05/02 03:33:37;;;;;;;27.00;13.07;;;14.10;95.90;;;;;;5033051;28;20022;-78
2023/05/02 03:36:03;;;;;;;21.15;12.23;;;14.10;96.00;;;;;;5015040;28;20037;-77
2023/05/02 03:38:29;;;;;;;23.45;12.40;;;14.10;96.00;;;;;;5032501;28;20032;-79
2023/05/02 03:40:58;;;;;;;22.08;12.05;;;14.20;96.10;;;;;;5031315;28;20163;-76
2023/05/02 03:43:24;;;;;;;22.55;12.50;;;14.10;96.10;;;;;;5033364;28;20508;-77
2023/05/02 03:45:50;;;;;;;23.73;12.07;;;14.10;96.20;;;;;;5032877;28;20037;-78
2023/05/02 03:48:15;;;;;;;24.42;12.73;;;14.10;96.40;;;;;;5032465;28;20041;-78
2023/05/02 03:50:42;;;;;;;23.17;11.60;;;14.00;96.70;;;;;;5015077;28;20045;-78
2023/05/02 03:53:08;;;;;;;25.80;11.75;;;14.00;96.70;;;;;;5033440;28;20017;-78
2023/05/02 03:55:44;;;;;;;19.40;11.10;;;14.00;96.90;;;;;;5033353;28;20022;-77
2023/05/02 03:58:10;;;;;;;22.40;12.10;;;13.90;97.40;;;;;;5032893;28;20029;-78
2023/05/02 04:00:39;;;;;;;26.08;11.98;;;14.10;97.00;;;;;;5032821;28;20033;-77
2023/05/02 04:03:06;;;;;;;22.90;11.18;;;14.20;96.90;;;;;;5032967;28;20025;-77
2023/05/02 04:05:31;;;;;;;21.92;11.88;;;14.10;97.10;;;;;;5032794;28;20475;-77
2023/05/02 04:07:57;;;;;;;25.42;12.85;;;14.10;97.30;;;;;;5032512;28;20095;-78
2023/05/02 04:10:23;;;;;;;27.90;12.55;;;14.00;97.60;;;;;;5033650;28;20136;-78
2023/05/02 04:12:48;;;;;;;25.65;13.20;;;14.00;97.70;;;;;;5014936;28;20037;-79
2023/05/02 04:15:14;;;;;;;31.02;14.70;;;14.10;97.80;;;;;;5033335;28;20037;-78
2023/05/02 04:17:40;;;;;;;25.30;13.93;;;13.90;98.70;;;;;;5032933;28;20038;-80
2023/05/02 04:20:06;;;;;;;24.55;14.60;;;13.90;99.60;;;;;;5032964;28;20124;-81
2023/05/02 04:22:32;;;;;;;25.33;14.35;;;13.90;99.90;;;;;;5033573;28;20056;-80
2023/05/02 04:24:58;;;;;;;26.92;14.52;;;14.00;99.90;;;;;;5015448;28;20056;-80
2023/05/02 04:27:24;;;;;;;28.95;14.63;;;13.70;99.90;;;;;;5032668;28;20471;-82
2023/05/02 04:29:51;;;;;;;27.30;15.07;;;13.70;99.90;;;;;;5034306;28;20045;-78
2023/05/02 04:32:16;;;;;;;30.25;14.77;;;13.60;99.90;;;;;;5035832;28;20080;-78
2023/05/02 04:34:42;;;;;;;29.08;14.73;;;13.60;99.90;;;;;;5036547;28;20025;-79
2023/05/02 04:37:08;;;;;;;30.02;14.57;;;13.70;99.90;;;;;;5033341;28;20491;-79
2023/05/02 04:39:34;;;;;;;31.05;14.77;;;13.90;99.90;;;;;;5033629;28;20459;-84
2023/05/02 04:42:00;;;;;;;25.63;13.57;;;14.00;99.90;;;;;;5016730;28;20099;-81
2023/05/02 04:44:26;;;;;;;27.17;15.00;;;14.10;99.90;;;;;;5018111;28;20037;-90
2023/05/02 04:46:52;;;;;;;28.25;15.02;;;14.20;99.90;;;;;;5017351;28;20367;-80
2023/05/02 04:49:18;;;;;;;29.88;14.73;;;14.30;99.90;;;;;;5034483;28;20026;-86
2023/05/02 04:51:44;;;;;;;22.38;12.95;;;14.30;99.90;;;;;;5034054;28;20034;-80
2023/05/02 04:54:14;;;;;;;24.17;11.57;;;14.30;99.90;;;;;;5035062;28;20502;-85
2023/05/02 04:56:40;;;;;;;23.70;13.02;;;14.20;99.90;;;;;;5036069;28;20029;-79
2023/05/02 04:59:05;;;;;;;26.55;12.70;;;14.30;99.90;;;;;;5034978;28;20025;-81
2023/05/02 05:01:31;;;;;;;23.17;11.73;;;14.10;99.90;;;;;;5039573;28;20033;-82
2023/05/02 05:03:56;;;;;;;20.10;10.50;;;14.20;99.90;;;;;;5025605;28;20026;-77
2023/05/02 05:06:23;;;;;;;23.05;12.05;;;14.20;99.90;;;;;;5024029;28;20034;-77
2023/05/02 05:08:48;;;;;;;21.00;10.95;;;14.10;99.90;;;;;;5032193;28;20044;-82
2023/05/02 05:11:17;;;;;;;15.45;9.25;;;14.20;99.90;;;;;;5031676;28;20103;-78
2023/05/02 05:13:42;;;;;;;13.93;7.65;;;14.20;99.90;;;;;;5032482;28;20029;-78
2023/05/02 05:16:08;;;;;;;11.10;5.60;;;14.30;99.90;;;;;;5033263;28;20160;-82
2023/05/02 05:18:40;;;;;;;6.78;3.45;;;14.10;99.90;;;;;;5031764;28;20129;-76
2023/05/02 05:21:07;;;;;;;4.53;2.60;;;14.00;99.90;;;;;;5031307;28;20369;-74
2023/05/02 05:23:34;;;;;;;4.55;2.15;;;13.80;99.90;;;;;;5031616;28;20099;-75
2023/05/02 05:26:09;;;;;;;3.80;2.38;;;13.70;99.90;;;;;;5013434;28;20458;-73
2023/05/02 05:28:35;;;;;;;4.20;2.20;;;13.60;99.90;;;;;;5013503;28;20018;-75
2023/05/02 05:31:09;;;;;;;3.75;1.85;;;13.60;99.90;;;;;;5030820;28;20056;-74
2023/05/02 05:33:36;;;;;;;2.67;1.83;;;13.50;99.90;;;;;;5021731;28;20483;-76
2023/05/02 05:36:08;;;;;;;3.45;1.77;;;13.60;99.90;;;;;;5010509;28;20048;-74
2023/05/02 05:38:34;;;;;;;3.95;1.80;;;13.50;99.90;;;;;;5009968;28;20037;-74
2023/05/02 05:41:00;;;;;;;7.78;2.13;;;13.50;99.90;;;;;;4993559;28;20030;-78
2023/05/02 05:43:27;;;;;;;4.43;2.05;;;13.40;99.70;;;;;;5011404;28;20488;-76
2023/05/02 05:45:53;;;;;;;8.40;1.65;;;13.10;99.90;;;;;;4993808;28;20044;-75
2023/05/02 05:48:19;;;;;;;6.07;2.17;;;13.10;99.80;;;;;;5009922;28;20049;-75
2023/05/02 05:50:45;;;;;;;3.90;1.75;;;13.20;99.40;;;;;;5010656;28;21916;-74
2023/05/02 05:53:11;;;;;;;5.60;1.75;;;13.20;99.60;;;;;;4993253;28;20482;-74
2023/05/02 05:55:37;;;;;;;7.28;1.85;;;13.20;99.40;;;;;;5011203;28;20034;-74
2023/05/02 05:58:04;;;;;;;4.97;1.70;;;13.20;99.30;;;;;;5010812;28;20554;-75
2023/05/02 06:00:30;;;;;;;6.30;1.92;;;13.10;99.00;;;;;;5010584;28;20371;-75
2023/05/02 06:02:55;;;;;;;7.55;2.97;;;13.10;99.80;;;;;;5011208;28;20034;-75
2023/05/02 06:05:21;;;;;;;8.43;2.67;;;13.10;99.50;;;;;;5015852;28;20363;-74
2023/05/02 06:07:46;;;;;;;10.38;2.65;;;13.10;99.40;;;;;;5014663;28;20099;-73
2023/05/02 06:10:12;;;;;;;10.30;2.42;;;13.10;99.60;;;;;;4996978;28;20026;-78
2023/05/02 06:12:38;;;;;;;6.68;2.25;;;13.10;99.10;;;;;;5014056;28;20046;-75
2023/05/02 06:15:05;;;;;;;9.23;2.25;;;13.00;99.10;;;;;;5018895;28;20030;-74
2023/05/02 06:17:31;;;;;;;5.50;2.10;;;13.00;99.10;;;;;;5014137;28;20099;-75
2023/05/02 06:19:56;;;;;;;11.43;3.25;;;12.90;99.00;;;;;;4996556;28;20109;-74
2023/05/02 06:22:22;;;;;;;11.00;2.78;;;12.90;98.80;;;;;;5014577;28;20027;-76
2023/05/02 06:24:48;;;;;;;11.75;3.22;;;12.90;98.70;;;;;;5013979;28;20459;-75
2023/05/02 06:27:13;;;;;;;15.85;3.65;;;12.70;98.70;;;;;;5013830;28;20109;-78
2023/05/02 06:29:39;;;;;;;12.38;2.75;;;12.70;98.70;;;;;;5013634;28;20085;-76
2023/05/02 06:32:05;;;;;;;12.57;3.20;;;12.70;98.70;;;;;;4996186;28;20083;-75
2023/05/02 06:34:33;;;;;;;13.52;3.33;;;12.50;98.50;;;;;;5017931;28;20065;-74
2023/05/02 06:36:59;;;;;;;14.85;2.85;;;12.60;98.30;;;;;;5013722;28;20334;-76
2023/05/02 06:39:25;;;;;;;15.38;3.35;;;12.40;98.60;;;;;;5013761;28;20033;-77
2023/05/02 06:41:55;;;;;;;18.67;4.35;;;12.50;98.60;;;;;;5013255;28;20092;-77
2023/05/02 06:44:20;;;;;;;19.17;4.15;;;12.50;98.40;;;;;;5014110;28;20126;-75
2023/05/02 06:46:46;;;;;;;16.17;3.42;;;12.50;98.30;;;;;;5014200;28;20531;-73
2023/05/02 06:49:12;;;;;;;19.23;3.67;;;12.50;98.20;;;;;;5013991;28;20050;-75
2023/05/02 06:51:38;;;;;;;16.08;3.83;;;12.50;98.00;;;;;;5014572;28;20123;-78
2023/05/02 06:54:05;;;;;;;19.58;3.92;;;12.60;98.10;;;;;;5013657;28;20061;-76
2023/05/02 06:56:30;;;;;;;19.02;3.20;;;12.60;97.80;;;;;;5013670;28;20030;-77
2023/05/02 06:58:56;;;;;;;17.13;4.07;;;12.70;97.90;;;;;;5013540;28;20041;-76
2023/05/02 07:01:21;;;;;;;17.80;3.67;;;12.70;97.20;;;;;;5014624;28;20022;-76
2023/05/02 07:03:47;;;;;;;21.30;3.47;;;12.80;97.10;;;;;;5013489;28;20034;-77
2023/05/02 07:06:13;;;;;;;15.43;4.95;;;12.80;96.70;;;;;;5013474;28;20034;-74
2023/05/02 07:08:38;;;;;;;20.77;3.55;;;12.80;95.90;;;;;;5013211;28;20026;-76
2023/05/02 07:11:04;;;;;;;14.63;2.88;;;12.70;95.70;;;;;;5013352;28;20084;-74
2023/05/02 07:13:30;;;;;;;17.08;3.60;;;12.80;95.60;;;;;;5013799;28;20080;-75
2023/05/02 07:15:56;;;;;;;12.73;3.10;;;12.80;95.40;;;;;;5012839;28;20040;-75
2023/05/02 07:18:22;;;;;;;15.43;3.33;;;12.90;95.00;;;;;;5013545;28;20376;-73
2023/05/02 07:20:47;;;;;;;21.30;3.80;;;13.00;95.20;;;;;;4995856;28;20538;-73
2023/05/02 07:23:13;;;;;;;21.20;3.95;;;13.00;95.00;;;;;;5012704;28;20220;-74
2023/05/02 07:25:39;;;;;;;21.10;3.40;;;13.10;94.60;;;;;;5014062;28;20375;-73
2023/05/02 07:28:05;;;;;;;22.92;3.45;;;13.10;94.50;;;;;;5013026;28;20121;-74
2023/05/02 07:30:31;;;;;;;15.98;3.58;;;13.10;94.60;;;;;;5012981;28;20126;-75
2023/05/02 07:32:56;;;;;;;15.32;4.97;;;13.10;94.80;;;;;;4995190;28;20038;-74
2023/05/02 07:35:22;;;;;;;18.10;3.55;;;13.10;94.70;;;;;;5013000;28;20525;-75
2023/05/02 07:37:48;;;;;;;21.05;4.30;;;13.00;94.50;;;;;;5013279;28;20034;-78
2023/05/02 07:40:14;;;;;;;16.35;3.22;;;13.20;94.40;;;;;;5012801;28;20022;-75
2023/05/02 07:42:40;;;;;;;19.30;3.92;;;13.20;94.00;;;;;;5012820;28;20120;-73
2023/05/02 07:45:07;;;;;;;16.80;3.10;;;13.20;93.90;;;;;;5012882;28;20037;-74
2023/05/02 07:47:32;;;;;;;17.23;3.75;;;13.30;93.60;;;;;;5012395;28;20036;-75
2023/05/02 07:49:58;;;;;;;24.48;4.53;;;13.30;93.40;;;;;;5012796;28;20026;-74
2023/05/02 07:52:24;;;;;;;15.20;3.17;;;13.30;93.30;;;;;;4995489;28;20041;-74
2023/05/02 07:54:51;;;;;;;18.10;3.75;;;13.30;93.30;;;;;;5014599;28;20080;-76
2023/05/02 07:57:17;;;;;;;17.75;3.33;;;13.30;93.20;;;;;;5014285;28;20322;-77
2023/05/02 07:59:44;;;;;;;20.80;3.97;;;13.40;92.90;;;;;;5013867;28;20468;-73
2023/05/02 08:02:11;;;;;;;18.38;3.20;;;13.20;92.40;;;;;;5012587;28;20054;-75
2023/05/02 08:04:37;;;;;;;16.63;3.15;;;13.10;92.80;;;;;;5013553;28;20029;-75
2023/05/02 08:07:03;;;;;;;13.20;2.72;;;13.20;92.40;;;;;;5012543;28;20034;-74
2023/05/02 08:09:29;;;;;;;12.05;2.85;;;13.30;92.40;;;;;;4994882;28;20038;-76
2023/05/02 08:11:54;;;;;;;11.60;2.88;;;13.30;92.10;;;;;;5011965;28;20042;-76
2023/05/02 08:14:20;;;;;;;14.73;2.97;;;13.40;92.00;;;;;;5012035;28;20057;-76
2023/05/02 08:16:46;;;;;;;16.38;2.85;;;13.40;91.70;;;;;;5012265;28;20033;-75
2023/05/02 08:19:11;;;;;;;15.20;3.38;;;13.40;91.80;;;;;;5011763;28;20053;-73
2023/05/02 08:21:37;;;;;;;12.00;2.97;;;13.50;92.20;;;;;;5011799;28;20030;-74
2023/05/02 08:24:03;;;;;;;12.85;2.88;;;13.70;91.80;;;;;;5012005;28;20030;-72
2023/05/02 08:26:28;;;;;;;18.40;3.33;;;13.70;91.40;;;;;;5012778;28;20034;-73
2023/05/02 08:28:54;;;;;;;13.00;2.40;;;13.50;90.90;;;;;;5012598;28;20052;-75
2023/05/02 08:31:20;;;;;;;12.65;2.20;;;13.50;90.90;;;;;;4992084;28;20076;-77
2023/05/02 08:33:46;;;;;;;12.90;2.58;;;13.60;90.70;;;;;;4986553;28;20419;-74
2023/05/02 08:36:17;;;;;;;10.85;2.95;;;13.60;90.40;;;;;;4994399;28;20038;-74
2023/05/02 08:38:44;;;;;;;16.70;2.60;;;13.50;90.20;;;;;;5005506;28;20057;-73
2023/05/02 08:41:16;;;;;;;7.80;2.22;;;13.50;90.20;;;;;;4991589;28;20041;-77
2023/05/02 08:43:45;;;;;;;10.57;2.15;;;13.50;90.20;;;;;;4995310;28;20023;-74
2023/05/02 08:46:13;;;;;;;14.75;2.38;;;13.50;90.30;;;;;;4991672;28;20062;-78
2023/05/02 08:48:41;;;;;;;7.07;2.03;;;13.60;90.10;;;;;;4990710;28;20037;-75
2023/05/02 08:51:12;;;;;;;13.80;3.03;;;13.50;90.00;;;;;;4991984;28;20332;-74
2023/05/02 08:53:39;;;;;;;14.32;2.42;;;13.60;90.00;;;;;;4997697;28;20034;-76
2023/05/02 08:56:06;;;;;;;12.70;2.20;;;13.60;90.00;;;;;;5010575;28;20053;-76
2023/05/02 08:58:32;;;;;;;11.55;2.55;;;13.50;90.00;;;;;;5010947;28;20097;-72
2023/05/02 09:01:03;;;;;;;11.15;2.25;;;13.40;89.70;;;;;;5011669;28;20453;-76
2023/05/02 09:03:34;;;;;;;16.70;2.67;;;13.30;89.70;;;;;;5011180;28;20042;-74
2023/05/02 09:06:08;;;;;;;12.85;2.83;;;13.10;89.50;;;;;;5010090;28;20057;-76
2023/05/02 09:08:34;;;;;;;10.05;2.72;;;13.20;90.20;;;;;;5011169;28;20038;-74
2023/05/02 09:11:02;;;;;;;8.32;2.53;;;13.30;89.70;;;;;;5010993;28;20095;-75
2023/05/02 09:13:33;;;;;;;17.73;3.42;;;13.30;89.20;;;;;;5011546;28;20345;-76
2023/05/02 09:16:16;;;;;;;8.18;2.42;;;13.30;89.30;;;;;;5010985;28;20396;-74
2023/05/02 09:18:49;;;;;;;33.60;5.53;;;13.30;89.40;;;;;;5010768;28;20038;-74
2023/05/02 09:21:33;;;;;;;22.88;3.47;;;13.10;89.30;;;;;;5011011;28;20037;-74
2023/05/02 09:23:59;;;;;;;17.95;3.58;;;13.10;89.30;;;;;;5011338;28;20409;-73
2023/05/02 09:26:31;;;;;;;9.25;1.90;;;13.00;89.30;;;;;;5012757;28;20113;-76
2023/05/02 09:28:57;;;;;;;7.85;2.40;;;13.20;88.60;;;;;;5009704;28;20228;-76
2023/05/02 09:31:38;;;;;;;12.30;2.35;;;13.10;88.80;;;;;;5010098;28;20037;-75
2023/05/02 09:34:16;;;;;;;8.25;2.58;;;13.30;88.50;;;;;;5011060;28;20161;-76
2023/05/02 09:36:43;;;;;;;13.73;2.47;;;13.40;88.00;;;;;;4993381;28;20057;-77
2023/05/02 09:39:14;;;;;;;16.35;2.60;;;13.30;87.20;;;;;;5002585;28;20034;-73
2023/05/02 09:41:45;;;;;;;11.15;2.50;;;13.30;87.00;;;;;;4977875;28;20080;-73
2023/05/02 09:44:12;;;;;;;22.48;5.65;;;13.30;86.80;;;;;;4996222;28;20155;-75
2023/05/02 09:46:42;;;;;;;7.28;2.00;;;13.40;87.00;;;;;;5001616;28;20065;-72
2023/05/02 09:49:09;;;;;;;12.82;3.33;;;13.50;86.60;;;;;;4995206;28;20516;-76
2023/05/02 09:51:34;;;;;;;15.48;2.97;;;13.50;86.40;;;;;;4994905;28;20030;-75
2023/05/02 09:54:00;;;;;;;15.88;2.65;;;13.60;85.70;;;;;;4994180;28;20027;-74
2023/05/02 09:56:26;;;;;;;10.82;2.13;;;13.70;86.80;;;;;;4995084;28;20053;-74
2023/05/02 09:59:12;;;;;;;11.30;2.47;;;13.80;85.50;;;;;;4995303;28;20112;-75
2023/05/02 10:01:39;;;;;;;14.32;2.30;;;13.90;84.90;;;;;;4995097;28;20041;-72
2023/05/02 10:04:06;;;;;;;10.90;1.93;;;13.80;83.50;;;;;;4995008;28;20121;-76
2023/05/02 10:06:32;;;;;;;14.35;2.78;;;13.60;82.50;;;;;;4977263;28;20038;-76
2023/05/02 10:08:58;;;;;;;10.43;1.90;;;13.40;83.30;;;;;;4994823;28;20031;-73
2023/05/02 10:11:24;;;;;;;9.05;2.38;;;13.70;83.40;;;;;;4994503;28;20043;-77
2023/05/02 10:13:51;;;;;;;10.45;1.90;;;13.90;83.20;;;;;;4995356;28;20046;-74
2023/05/02 10:16:27;;;;;;;9.27;1.90;;;13.90;82.60;;;;;;4994667;28;20038;-75
2023/05/02 10:19:06;;;;;;;8.05;2.00;;;13.90;82.80;;;;;;4994491;28;20364;-75
2023/05/02 10:21:33;;;;;;;9.85;2.50;;;13.50;81.80;;;;;;4994444;28;20058;-72
2023/05/02 10:24:02;;;;;;;14.18;2.30;;;13.70;83.00;;;;;;4994521;28;20030;-75
2023/05/02 10:26:28;;;;;;;13.18;2.70;;;13.90;82.10;;;;;;4977264;28;20031;-75
2023/05/02 10:28:55;;;;;;;12.25;2.88;;;13.90;81.10;;;;;;4994864;28;20029;-72
2023/05/02 10:31:21;;;;;;;14.38;3.85;;;14.00;81.30;;;;;;4994454;28;20120;-74
2023/05/02 10:33:51;;;;;;;13.93;3.72;;;13.90;80.60;;;;;;4977089;28;20022;-71
2023/05/02 10:36:21;;;;;;;20.35;2.70;;;13.90;80.60;;;;;;4993371;28;20030;-72
2023/05/02 10:38:48;;;;;;;10.90;2.53;;;13.90;80.50;;;;;;4993145;28;20034;-74
2023/05/02 10:41:20;;;;;;;11.30;2.07;;;13.80;80.00;;;;;;4994076;28;20106;-74
2023/05/02 10:43:48;;;;;;;19.17;4.15;;;13.60;80.40;;;;;;4994538;28;20030;-74
2023/05/02 10:46:35;;;;;;;13.77;3.28;;;13.70;80.50;;;;;;4994378;28;20048;-72
2023/05/02 10:49:12;;;;;;;15.95;2.92;;;13.60;80.20;;;;;;4992717;28;20031;-75
2023/05/02 10:51:40;;;;;;;16.95;3.60;;;13.60;80.10;;;;;;4993854;28;20031;-75
2023/05/02 10:54:24;;;;;;;19.27;3.25;;;13.90;80.50;;;;;;4994125;28;20126;-74
2023/05/02 10:57:09;;;;;;;13.73;3.50;;;14.20;80.40;;;;;;4976700;28;20034;-75
2023/05/02 10:59:41;;;;;;;18.80;3.28;;;14.30;79.60;;;;;;4996986;28;20034;-73
2023/05/02 11:02:42;;;;;;;11.43;3.05;;;14.30;78.90;;;;;;4993758;28;20034;-74
2023/05/02 11:05:07;;;;;;;7.20;2.40;;;14.00;78.50;;;;;;4966253;28;20471;-72
2023/05/02 11:07:35;;;;;;;10.73;3.03;;;13.60;76.70;;;;;;4994040;28;20030;-72
2023/05/02 11:10:27;;;;;;;25.77;3.85;;;13.60;77.80;;;;;;4993613;28;20097;-73
2023/05/02 11:12:55;;;;;;;7.85;2.83;;;14.00;77.60;;;;;;4990136;28;20125;-73
2023/05/02 11:15:26;;;;;;;8.93;2.78;;;14.00;76.40;;;;;;4993601;28;20492;-75
2023/05/02 11:18:01;;;;;;;12.02;2.47;;;14.10;76.60;;;;;;4993677;28;20101;-75
2023/05/02 11:20:27;;;;;;;12.32;2.83;;;13.80;76.40;;;;;;4993518;28;20045;-72
2023/05/02 11:22:58;;;;;;;11.73;3.53;;;14.30;77.50;;;;;;4993088;28;20334;-73
2023/05/02 11:25:32;;;;;;;11.75;3.30;;;14.30;76.00;;;;;;5013177;28;20177;-73
2023/05/02 11:27:58;;;;;;;16.25;2.95;;;14.30;74.90;;;;;;5012949;28;20117;-72
2023/05/02 11:30:38;;;;;;;8.60;3.22;;;14.50;75.90;;;;;;5012728;28;20443;-73
2023/05/02 11:33:04;;;;;;;7.20;3.03;;;14.30;75.10;;;;;;5012956;28;20507;-75
2023/05/02 11:35:30;;;;;;;12.00;3.78;;;14.20;75.00;;;;;;4995649;28;20062;-72
2023/05/02 11:38:10;;;;;;;11.18;3.35;;;14.60;75.20;;;;;;5012971;28;20422;-72
2023/05/02 11:40:36;;;;;;;7.78;2.63;;;14.90;74.90;;;;;;5015366;28;20018;-75
2023/05/02 11:43:15;;;;;;;11.18;2.58;;;14.80;73.60;;;;;;5012723;28;20060;-72
2023/05/02 11:45:41;;;;;;;11.13;3.90;;;14.10;73.10;;;;;;5013183;28;20030;-73
2023/05/02 11:48:09;;;;;;;8.63;3.00;;;14.10;74.00;;;;;;5012763;28;20136;-76
2023/05/02 11:50:41;;;;;;;13.43;3.43;;;14.20;74.00;;;;;;5013134;28;20044;-75
2023/05/02 11:53:11;;;;;;;13.50;3.97;;;14.40;73.70;;;;;;5012698;28;20824;-72
2023/05/02 11:55:37;;;;;;;11.55;2.90;;;14.60;73.40;;;;;;5012900;28;20092;-75
2023/05/02 11:58:02;;;;;;;10.27;3.30;;;14.70;72.60;;;;;;5012660;28;20026;-73
2023/05/02 12:00:28;;;;;;;17.08;3.28;;;14.70;71.90;;;;;;5012062;28;20125;-73
2023/05/02 12:02:54;;;;;;;9.45;2.65;;;14.30;71.80;;;;;;5011507;28;20033;-74
2023/05/02 12:05:30;;;;;;;7.82;2.70;;;14.50;71.30;;;;;;4994788;28;20030;-73
2023/05/02 12:07:56;;;;;;;8.68;3.10;;;14.70;71.40;;;;;;5012108;28;20286;-70
2023/05/02 12:10:22;;;;;;;8.45;3.13;;;14.80;71.20;;;;;;4995355;28;20068;-71
2023/05/02 12:12:48;;;;;;;9.60;3.38;;;14.70;70.20;;;;;;5012147;28;20037;-72
2023/05/02 12:15:14;;;;;;;14.43;3.95;;;14.50;70.00;;;;;;5012284;28;20030;-75
2023/05/02 12:17:51;;;;;;;17.05;3.70;;;14.60;70.70;;;;;;4988789;28;20346;-74
2023/05/02 12:20:17;;;;;;;7.32;3.15;;;14.50;70.60;;;;;;4978202;28;20041;-72
2023/05/02 12:22:43;;;;;;;9.93;2.85;;;14.60;69.40;;;;;;4995265;28;20018;-75
2023/05/02 12:25:09;;;;;;;8.23;3.22;;;14.70;68.40;;;;;;5012031;28;20114;-74
2023/05/02 12:27:36;;;;;;;12.82;3.30;;;15.00;69.20;;;;;;4994661;28;20360;-73
2023/05/02 12:30:02;;;;;;;10.15;3.03;;;15.40;68.90;;;;;;5011560;28;20042;-75
2023/05/02 12:32:33;;;;;;;9.48;3.17;;;15.20;67.20;;;;;;4994480;28;20048;-72
2023/05/02 12:35:00;;;;;;;16.75;2.92;;;15.10;67.20;;;;;;5010710;28;20125;-73
2023/05/02 12:37:27;;;;;;;13.10;3.90;;;14.90;68.90;;;;;;5012271;28;20414;-72
2023/05/02 12:39:54;;;;;;;13.73;3.00;;;15.00;69.20;;;;;;5011697;28;20062;-75
2023/05/02 12:42:22;;;;;;;8.57;2.92;;;15.20;69.40;;;;;;4993838;28;20037;-75
2023/05/02 12:44:52;;;;;;;8.25;2.28;;;15.30;68.10;;;;;;5011541;28;20030;-76